Terminal Aerodrome Forecast
Issued by NWS

Home | Current Version | Previous Version | Text Only | Print | Product List | Glossary On
Versions: 1 2 3 4 5 6 7 8 9 10 11 12
000
FTUS45 KABQ 191731
TAFFMN
TAF
KFMN 191731Z 1918/2018 13008KT P6SM BKN110
     FM192100 22009KT P6SM VCSH BKN100
     FM200200 13010KT P6SM VCSH SCT060 OVC100
      TEMPO 2002/2005 6SM -SHRA BKN060
     FM200500 10007KT P6SM BKN090=

USA.gov is the U.S. government's official web portal to all federal, state and local government web resources and services.